sensor_id;sensor_type;location;lat;lon;timestamp;pressure;altitude;pressure_sealevel;temperature;humidity
37856;BME280;23694;43.274;26.924;2023-02-23T00:01:21;98928.34;;;6.95;73.59
37856;BME280;23694;43.274;26.924;2023-02-23T00:03:48;98923.59;;;7.19;72.18
37856;BME280;23694;43.274;26.924;2023-02-23T00:06:16;98925.38;;;7.19;71.99
37856;BME280;23694;43.274;26.924;2023-02-23T00:08:43;98926.63;;;7.27;72.05
37856;BME280;23694;43.274;26.924;2023-02-23T00:11:14;98918.03;;;7.41;71.18
37856;BME280;23694;43.274;26.924;2023-02-23T00:13:42;98920.66;;;7.41;71.19
37856;BME280;23694;43.274;26.924;2023-02-23T00:16:16;98920.06;;;7.36;71.62
37856;BME280;23694;43.274;26.924;2023-02-23T00:18:51;98913.59;;;7.27;72.29
37856;BME280;23694;43.274;26.924;2023-02-23T00:21:23;98906.53;;;7.29;72.34
37856;BME280;23694;43.274;26.924;2023-02-23T00:26:17;98913.78;;;7.24;72.11
37856;BME280;23694;43.274;26.924;2023-02-23T00:28:47;98906.72;;;7.26;72.62
37856;BME280;23694;43.274;26.924;2023-02-23T00:31:13;98910.56;;;7.35;72.22
37856;BME280;23694;43.274;26.924;2023-02-23T00:33:40;98913.00;;;7.38;71.86
37856;BME280;23694;43.274;26.924;2023-02-23T00:36:10;98913.00;;;7.22;72.62
37856;BME280;23694;43.274;26.924;2023-02-23T00:38:37;98910.31;;;7.24;72.61
37856;BME280;23694;43.274;26.924;2023-02-23T00:41:09;98910.59;;;7.19;73.50
37856;BME280;23694;43.274;26.924;2023-02-23T00:43:38;98906.59;;;7.12;75.00
37856;BME280;23694;43.274;26.924;2023-02-23T00:46:16;98905.69;;;6.97;76.36
37856;BME280;23694;43.274;26.924;2023-02-23T00:48:44;98899.78;;;6.94;77.00
37856;BME280;23694;43.274;26.924;2023-02-23T00:51:11;98897.78;;;6.83;78.20
37856;BME280;23694;43.274;26.924;2023-02-23T00:53:37;98903.31;;;6.93;78.78
37856;BME280;23694;43.274;26.924;2023-02-23T00:56:04;98896.84;;;6.84;78.82
37856;BME280;23694;43.274;26.924;2023-02-23T00:58:31;98892.72;;;6.80;79.50
37856;BME280;23694;43.274;26.924;2023-02-23T01:00:57;98902.03;;;6.68;79.86
37856;BME280;23694;43.274;26.924;2023-02-23T01:03:28;98895.41;;;6.79;79.46
37856;BME280;23694;43.274;26.924;2023-02-23T01:05:59;98893.56;;;6.81;77.67
37856;BME280;23694;43.274;26.924;2023-02-23T01:08:25;98894.75;;;6.91;76.50
37856;BME280;23694;43.274;26.924;2023-02-23T01:10:52;98896.69;;;7.03;75.50
37856;BME280;23694;43.274;26.924;2023-02-23T01:13:22;98896.94;;;6.98;76.18
37856;BME280;23694;43.274;26.924;2023-02-23T01:15:49;98895.50;;;7.09;74.77
37856;BME280;23694;43.274;26.924;2023-02-23T01:18:18;98896.88;;;7.16;73.97
37856;BME280;23694;43.274;26.924;2023-02-23T01:20:45;98893.94;;;7.22;73.61
37856;BME280;23694;43.274;26.924;2023-02-23T01:23:13;98888.78;;;7.05;73.78
37856;BME280;23694;43.274;26.924;2023-02-23T01:25:41;98899.03;;;7.08;73.82
37856;BME280;23694;43.274;26.924;2023-02-23T01:28:11;98893.34;;;7.17;73.92
37856;BME280;23694;43.274;26.924;2023-02-23T01:30:38;98887.03;;;7.05;74.09
37856;BME280;23694;43.274;26.924;2023-02-23T01:33:05;98886.53;;;7.14;73.44
37856;BME280;23694;43.274;26.924;2023-02-23T01:35:31;98887.88;;;7.06;73.87
37856;BME280;23694;43.274;26.924;2023-02-23T01:37:58;98895.59;;;7.07;73.61
37856;BME280;23694;43.274;26.924;2023-02-23T01:40:25;98890.31;;;7.09;73.69
37856;BME280;23694;43.274;26.924;2023-02-23T01:42:56;98894.66;;;7.08;73.80
37856;BME280;23694;43.274;26.924;2023-02-23T01:45:29;98889.88;;;7.00;73.83
37856;BME280;23694;43.274;26.924;2023-02-23T01:47:58;98882.16;;;6.99;73.75
37856;BME280;23694;43.274;26.924;2023-02-23T01:50:32;98895.09;;;7.00;74.20
37856;BME280;23694;43.274;26.924;2023-02-23T01:53:01;98887.44;;;6.97;74.55
37856;BME280;23694;43.274;26.924;2023-02-23T01:55:27;98885.84;;;6.95;74.43
37856;BME280;23694;43.274;26.924;2023-02-23T01:58:07;98890.47;;;6.90;74.48
37856;BME280;23694;43.274;26.924;2023-02-23T02:00:42;98888.53;;;6.93;74.55
37856;BME280;23694;43.274;26.924;2023-02-23T02:03:17;98885.09;;;6.93;74.19
37856;BME280;23694;43.274;26.924;2023-02-23T02:05:45;98886.78;;;6.94;74.60
37856;BME280;23694;43.274;26.924;2023-02-23T02:08:13;98888.78;;;6.89;74.23
37856;BME280;23694;43.274;26.924;2023-02-23T02:10:40;98889.13;;;6.83;74.52
37856;BME280;23694;43.274;26.924;2023-02-23T02:13:17;98892.41;;;6.86;74.52
37856;BME280;23694;43.274;26.924;2023-02-23T02:16:24;98894.16;;;6.86;74.66
37856;BME280;23694;43.274;26.924;2023-02-23T02:39:09;98889.13;;;6.83;76.86
37856;BME280;23694;43.274;26.924;2023-02-23T02:48:09;98898.91;;;6.62;77.40
37856;BME280;23694;43.274;26.924;2023-02-23T02:50:22;98902.03;;;6.68;77.48
37856;BME280;23694;43.274;26.924;2023-02-23T02:53:00;98900.34;;;6.67;77.62
37856;BME280;23694;43.274;26.924;2023-02-23T02:55:31;98905.97;;;6.60;78.66
37856;BME280;23694;43.274;26.924;2023-02-23T02:58:01;98905.97;;;6.43;79.65
37856;BME280;23694;43.274;26.924;2023-02-23T03:00:39;98911.91;;;6.29;80.57
37856;BME280;23694;43.274;26.924;2023-02-23T03:03:35;98907.22;;;6.35;81.18
37856;BME280;23694;43.274;26.924;2023-02-23T03:06:33;98914.63;;;6.43;80.71
37856;BME280;23694;43.274;26.924;2023-02-23T03:15:42;98919.50;;;6.16;82.05
37856;BME280;23694;43.274;26.924;2023-02-23T03:18:34;98919.81;;;5.93;83.41
37856;BME280;23694;43.274;26.924;2023-02-23T03:21:27;98916.69;;;5.85;84.39
37856;BME280;23694;43.274;26.924;2023-02-23T03:24:41;98925.03;;;5.74;85.66
37856;BME280;23694;43.274;26.924;2023-02-23T03:30:23;98928.97;;;5.47;89.97
37856;BME280;23694;43.274;26.924;2023-02-23T03:33:22;98928.66;;;5.53;89.74
37856;BME280;23694;43.274;26.924;2023-02-23T03:36:14;98926.22;;;5.50;89.27
37856;BME280;23694;43.274;26.924;2023-02-23T03:42:10;98926.69;;;5.58;88.83
37856;BME280;23694;43.274;26.924;2023-02-23T03:44:57;98930.38;;;5.35;90.16
37856;BME280;23694;43.274;26.924;2023-02-23T03:47:44;98925.41;;;5.30;90.67
37856;BME280;23694;43.274;26.924;2023-02-23T03:51:02;98936.06;;;5.43;91.46
37856;BME280;23694;43.274;26.924;2023-02-23T03:54:16;98936.22;;;5.57;90.90
37856;BME280;23694;43.274;26.924;2023-02-23T03:57:02;98941.06;;;5.65;91.10
37856;BME280;23694;43.274;26.924;2023-02-23T03:59:59;98944.22;;;5.35;92.25
37856;BME280;23694;43.274;26.924;2023-02-23T04:02:48;98943.13;;;5.58;91.10
37856;BME280;23694;43.274;26.924;2023-02-23T04:05:35;98945.41;;;5.64;90.63
37856;BME280;23694;43.274;26.924;2023-02-23T04:08:24;98943.28;;;5.91;89.47
37856;BME280;23694;43.274;26.924;2023-02-23T04:14:07;98947.72;;;6.07;88.92
37856;BME280;23694;43.274;26.924;2023-02-23T04:16:40;98951.09;;;6.09;87.06
37856;BME280;23694;43.274;26.924;2023-02-23T04:19:07;98944.91;;;5.94;87.81
37856;BME280;23694;43.274;26.924;2023-02-23T04:21:33;98954.19;;;5.62;89.54
37856;BME280;23694;43.274;26.924;2023-02-23T04:23:59;98946.94;;;5.32;93.11
37856;BME280;23694;43.274;26.924;2023-02-23T04:26:25;98952.34;;;5.47;91.99
37856;BME280;23694;43.274;26.924;2023-02-23T04:28:51;98949.97;;;5.42;93.14
37856;BME280;23694;43.274;26.924;2023-02-23T04:31:17;98950.97;;;5.57;93.09
37856;BME280;23694;43.274;26.924;2023-02-23T04:33:43;98949.63;;;5.84;91.54
37856;BME280;23694;43.274;26.924;2023-02-23T04:36:09;98954.06;;;5.82;90.63
37856;BME280;23694;43.274;26.924;2023-02-23T04:38:36;98955.38;;;5.73;91.28
37856;BME280;23694;43.274;26.924;2023-02-23T04:41:02;98964.03;;;5.55;91.69
37856;BME280;23694;43.274;26.924;2023-02-23T04:43:28;98957.81;;;5.40;93.48
37856;BME280;23694;43.274;26.924;2023-02-23T04:45:54;98956.06;;;4.85;99.27
37856;BME280;23694;43.274;26.924;2023-02-23T04:48:20;98966.53;;;5.02;99.49
37856;BME280;23694;43.274;26.924;2023-02-23T04:50:46;98965.69;;;5.01;99.92
37856;BME280;23694;43.274;26.924;2023-02-23T04:53:12;98967.78;;;4.93;100.00
37856;BME280;23694;43.274;26.924;2023-02-23T04:55:38;98972.28;;;5.08;100.00
37856;BME280;23694;43.274;26.924;2023-02-23T04:58:04;98966.97;;;5.30;100.00
37856;BME280;23694;43.274;26.924;2023-02-23T05:00:30;98966.75;;;5.35;99.86
37856;BME280;23694;43.274;26.924;2023-02-23T05:02:58;98976.50;;;5.30;100.00
37856;BME280;23694;43.274;26.924;2023-02-23T05:05:24;98975.59;;;5.31;99.76
37856;BME280;23694;43.274;26.924;2023-02-23T05:07:50;98979.78;;;4.96;100.00
37856;BME280;23694;43.274;26.924;2023-02-23T05:10:17;98988.00;;;5.05;100.00
37856;BME280;23694;43.274;26.924;2023-02-23T05:12:43;98984.81;;;4.99;100.00
37856;BME280;23694;43.274;26.924;2023-02-23T05:15:10;98984.72;;;5.21;100.00
37856;BME280;23694;43.274;26.924;2023-02-23T05:17:37;98998.25;;;5.27;100.00
37856;BME280;23694;43.274;26.924;2023-02-23T05:20:05;99004.72;;;5.37;100.00
37856;BME280;23694;43.274;26.924;2023-02-23T05:22:32;99009.19;;;5.53;100.00
37856;BME280;23694;43.274;26.924;2023-02-23T05:24:58;99012.50;;;5.56;100.00
37856;BME280;23694;43.274;26.924;2023-02-23T05:27:24;99011.44;;;5.60;100.00
37856;BME280;23694;43.274;26.924;2023-02-23T05:29:50;99011.69;;;5.73;100.00
37856;BME280;23694;43.274;26.924;2023-02-23T05:32:16;99018.94;;;5.85;99.58
37856;BME280;23694;43.274;26.924;2023-02-23T05:34:42;99018.38;;;5.97;97.89
37856;BME280;23694;43.274;26.924;2023-02-23T05:37:08;99033.97;;;5.60;100.00
37856;BME280;23694;43.274;26.924;2023-02-23T05:39:34;99033.63;;;5.49;100.00
37856;BME280;23694;43.274;26.924;2023-02-23T05:42:00;99028.34;;;5.69;100.00
37856;BME280;23694;43.274;26.924;2023-02-23T05:44:27;99039.81;;;5.65;100.00
37856;BME280;23694;43.274;26.924;2023-02-23T05:46:53;99035.94;;;5.73;100.00
37856;BME280;23694;43.274;26.924;2023-02-23T05:49:19;99046.06;;;5.61;100.00
37856;BME280;23694;43.274;26.924;2023-02-23T05:51:45;99056.75;;;5.36;100.00
37856;BME280;23694;43.274;26.924;2023-02-23T05:54:11;99059.41;;;5.53;100.00
37856;BME280;23694;43.274;26.924;2023-02-23T05:56:39;99061.88;;;5.37;100.00
37856;BME280;23694;43.274;26.924;2023-02-23T05:59:06;99064.03;;;5.65;100.00
37856;BME280;23694;43.274;26.924;2023-02-23T06:01:32;99065.09;;;5.43;100.00
37856;BME280;23694;43.274;26.924;2023-02-23T06:03:58;99070.00;;;5.49;100.00
37856;BME280;23694;43.274;26.924;2023-02-23T06:06:24;99072.25;;;5.56;100.00
37856;BME280;23694;43.274;26.924;2023-02-23T06:08:51;99071.13;;;5.24;100.00
37856;BME280;23694;43.274;26.924;2023-02-23T06:11:17;99067.41;;;5.30;100.00
37856;BME280;23694;43.274;26.924;2023-02-23T06:13:43;99076.41;;;5.41;100.00
37856;BME280;23694;43.274;26.924;2023-02-23T06:16:09;99079.34;;;5.14;100.00
37856;BME280;23694;43.274;26.924;2023-02-23T06:18:36;99077.34;;;5.20;100.00
37856;BME280;23694;43.274;26.924;2023-02-23T06:21:02;99083.69;;;5.13;100.00
37856;BME280;23694;43.274;26.924;2023-02-23T06:23:29;99088.19;;;5.30;100.00
37856;BME280;23694;43.274;26.924;2023-02-23T06:25:56;99092.31;;;5.34;100.00
37856;BME280;23694;43.274;26.924;2023-02-23T06:28:23;99090.94;;;5.64;100.00
37856;BME280;23694;43.274;26.924;2023-02-23T06:30:53;99096.91;;;5.85;100.00
37856;BME280;23694;43.274;26.924;2023-02-23T06:33:20;99102.44;;;5.78;100.00
37856;BME280;23694;43.274;26.924;2023-02-23T06:35:46;99091.53;;;5.90;100.00
37856;BME280;23694;43.274;26.924;2023-02-23T06:38:12;99097.91;;;6.01;100.00
37856;BME280;23694;43.274;26.924;2023-02-23T06:40:38;99104.47;;;5.91;100.00
37856;BME280;23694;43.274;26.924;2023-02-23T06:43:04;99104.31;;;5.94;100.00
37856;BME280;23694;43.274;26.924;2023-02-23T06:45:31;99104.03;;;6.00;100.00
37856;BME280;23694;43.274;26.924;2023-02-23T06:47:58;99094.75;;;5.95;100.00
37856;BME280;23694;43.274;26.924;2023-02-23T06:50:24;99111.28;;;5.94;100.00
37856;BME280;23694;43.274;26.924;2023-02-23T06:52:50;99109.13;;;6.21;100.00
37856;BME280;23694;43.274;26.924;2023-02-23T06:55:16;99110.88;;;6.74;100.00
37856;BME280;23694;43.274;26.924;2023-02-23T06:57:42;99108.94;;;7.12;99.20
37856;BME280;23694;43.274;26.924;2023-02-23T07:00:12;99099.63;;;6.56;100.00
37856;BME280;23694;43.274;26.924;2023-02-23T07:02:40;99107.66;;;6.86;100.00
37856;BME280;23694;43.274;26.924;2023-02-23T07:05:07;99110.72;;;6.59;100.00
37856;BME280;23694;43.274;26.924;2023-02-23T07:07:33;99108.19;;;6.58;100.00
37856;BME280;23694;43.274;26.924;2023-02-23T07:09:59;99104.84;;;6.56;100.00
37856;BME280;23694;43.274;26.924;2023-02-23T07:12:25;99110.03;;;6.56;100.00
37856;BME280;23694;43.274;26.924;2023-02-23T07:14:51;99119.31;;;6.79;100.00
37856;BME280;23694;43.274;26.924;2023-02-23T07:17:17;99115.53;;;6.84;100.00
37856;BME280;23694;43.274;26.924;2023-02-23T07:19:43;99115.09;;;6.76;100.00
37856;BME280;23694;43.274;26.924;2023-02-23T07:22:09;99124.72;;;6.57;100.00
37856;BME280;23694;43.274;26.924;2023-02-23T07:24:35;99123.44;;;6.29;100.00
37856;BME280;23694;43.274;26.924;2023-02-23T07:27:03;99117.38;;;6.65;100.00
37856;BME280;23694;43.274;26.924;2023-02-23T07:29:29;99115.09;;;6.59;100.00
37856;BME280;23694;43.274;26.924;2023-02-23T07:31:55;99111.44;;;6.44;100.00
37856;BME280;23694;43.274;26.924;2023-02-23T07:34:21;99119.53;;;6.57;100.00
37856;BME280;23694;43.274;26.924;2023-02-23T07:36:47;99127.56;;;6.87;100.00
37856;BME280;23694;43.274;26.924;2023-02-23T07:39:13;99123.50;;;6.64;100.00
37856;BME280;23694;43.274;26.924;2023-02-23T07:41:40;99112.47;;;6.59;100.00
37856;BME280;23694;43.274;26.924;2023-02-23T07:44:06;99124.66;;;6.58;100.00
37856;BME280;23694;43.274;26.924;2023-02-23T07:46:32;99121.44;;;6.88;100.00
37856;BME280;23694;43.274;26.924;2023-02-23T07:48:58;99127.25;;;6.58;100.00
37856;BME280;23694;43.274;26.924;2023-02-23T07:51:24;99128.19;;;6.57;100.00
37856;BME280;23694;43.274;26.924;2023-02-23T07:53:50;99117.22;;;6.85;100.00
37856;BME280;23694;43.274;26.924;2023-02-23T07:56:16;99127.16;;;7.12;99.13
37856;BME280;23694;43.274;26.924;2023-02-23T07:58:43;99129.16;;;7.24;98.78
37856;BME280;23694;43.274;26.924;2023-02-23T08:01:10;99112.84;;;7.03;98.80
37856;BME280;23694;43.274;26.924;2023-02-23T08:03:37;99119.59;;;7.24;97.44
37856;BME280;23694;43.274;26.924;2023-02-23T08:06:04;99120.66;;;7.20;96.31
37856;BME280;23694;43.274;26.924;2023-02-23T08:08:30;99134.72;;;7.34;96.60
37856;BME280;23694;43.274;26.924;2023-02-23T08:11:02;99142.84;;;7.45;96.25
37856;BME280;23694;43.274;26.924;2023-02-23T08:13:28;99142.94;;;7.26;96.65
37856;BME280;23694;43.274;26.924;2023-02-23T08:15:54;99142.03;;;6.92;99.40
37856;BME280;23694;43.274;26.924;2023-02-23T08:18:20;99138.75;;;6.89;100.00
37856;BME280;23694;43.274;26.924;2023-02-23T08:20:46;99146.84;;;7.35;96.41
37856;BME280;23694;43.274;26.924;2023-02-23T08:23:12;99145.56;;;7.59;94.99
37856;BME280;23694;43.274;26.924;2023-02-23T08:25:39;99147.09;;;7.30;95.97
37856;BME280;23694;43.274;26.924;2023-02-23T08:28:05;99136.50;;;7.33;96.00
37856;BME280;23694;43.274;26.924;2023-02-23T08:30:32;99145.44;;;7.45;96.18
37856;BME280;23694;43.274;26.924;2023-02-23T08:32:58;99149.69;;;7.79;93.86
37856;BME280;23694;43.274;26.924;2023-02-23T08:35:26;99150.34;;;8.00;91.26
37856;BME280;23694;43.274;26.924;2023-02-23T08:37:53;99153.56;;;7.72;93.26
37856;BME280;23694;43.274;26.924;2023-02-23T08:40:19;99151.06;;;7.37;92.22
37856;BME280;23694;43.274;26.924;2023-02-23T08:42:46;99160.88;;;7.32;95.00
37856;BME280;23694;43.274;26.924;2023-02-23T08:45:14;99146.16;;;7.64;92.02
37856;BME280;23694;43.274;26.924;2023-02-23T08:47:40;99158.25;;;7.65;90.65
37856;BME280;23694;43.274;26.924;2023-02-23T08:50:06;99172.94;;;7.50;92.44
37856;BME280;23694;43.274;26.924;2023-02-23T08:52:38;99169.69;;;7.62;90.85
37856;BME280;23694;43.274;26.924;2023-02-23T08:55:05;99171.28;;;7.82;88.38
37856;BME280;23694;43.274;26.924;2023-02-23T08:57:34;99186.59;;;8.04;87.06
37856;BME280;23694;43.274;26.924;2023-02-23T09:00:01;99180.38;;;8.22;85.92
37856;BME280;23694;43.274;26.924;2023-02-23T09:02:28;99194.00;;;8.27;85.87
37856;BME280;23694;43.274;26.924;2023-02-23T09:04:54;99181.56;;;8.64;84.11
37856;BME280;23694;43.274;26.924;2023-02-23T09:07:21;99182.88;;;8.87;82.72
37856;BME280;23694;43.274;26.924;2023-02-23T09:09:55;99171.59;;;8.86;80.66
37856;BME280;23694;43.274;26.924;2023-02-23T09:12:21;99170.44;;;8.76;81.37
37856;BME280;23694;43.274;26.924;2023-02-23T09:14:48;99183.94;;;8.99;79.53
37856;BME280;23694;43.274;26.924;2023-02-23T09:17:16;99191.25;;;8.78;80.89
37856;BME280;23694;43.274;26.924;2023-02-23T09:19:43;99188.69;;;8.46;82.44
37856;BME280;23694;43.274;26.924;2023-02-23T09:22:09;99194.22;;;8.40;82.30
37856;BME280;23694;43.274;26.924;2023-02-23T09:24:35;99191.94;;;8.34;82.11
37856;BME280;23694;43.274;26.924;2023-02-23T09:27:01;99199.44;;;8.56;81.11
37856;BME280;23694;43.274;26.924;2023-02-23T09:29:27;99203.13;;;8.68;80.81
37856;BME280;23694;43.274;26.924;2023-02-23T09:31:53;99193.91;;;8.46;81.44
37856;BME280;23694;43.274;26.924;2023-02-23T09:34:23;99206.53;;;8.54;81.33
37856;BME280;23694;43.274;26.924;2023-02-23T09:36:49;99198.50;;;8.41;81.50
37856;BME280;23694;43.274;26.924;2023-02-23T09:39:16;99197.44;;;8.91;80.11
37856;BME280;23694;43.274;26.924;2023-02-23T09:42:01;99208.16;;;8.86;78.04
37856;BME280;23694;43.274;26.924;2023-02-23T09:47:44;99197.50;;;8.44;81.04
37856;BME280;23694;43.274;26.924;2023-02-23T09:50:20;99207.72;;;8.94;78.93
37856;BME280;23694;43.274;26.924;2023-02-23T09:52:53;99208.03;;;9.04;77.27
37856;BME280;23694;43.274;26.924;2023-02-23T09:55:21;99208.75;;;9.21;76.34
37856;BME280;23694;43.274;26.924;2023-02-23T09:57:48;99198.16;;;8.63;79.35
37856;BME280;23694;43.274;26.924;2023-02-23T10:00:22;99205.56;;;8.71;79.47
37856;BME280;23694;43.274;26.924;2023-02-23T10:05:45;99188.13;;;9.31;76.54
37856;BME280;23694;43.274;26.924;2023-02-23T10:08:21;99214.09;;;9.34;75.86
37856;BME280;23694;43.274;26.924;2023-02-23T10:13:57;99191.56;;;9.17;75.87
37856;BME280;23694;43.274;26.924;2023-02-23T10:19:05;99203.16;;;9.28;76.17
37856;BME280;23694;43.274;26.924;2023-02-23T10:21:39;99188.13;;;9.31;74.71
37856;BME280;23694;43.274;26.924;2023-02-23T10:24:33;99194.38;;;9.29;74.86
37856;BME280;23694;43.274;26.924;2023-02-23T10:27:12;99203.22;;;9.12;74.84
37856;BME280;23694;43.274;26.924;2023-02-23T10:29:54;99196.34;;;9.25;74.16
37856;BME280;23694;43.274;26.924;2023-02-23T10:35:28;99190.25;;;9.10;73.86
37856;BME280;23694;43.274;26.924;2023-02-23T10:37:55;99189.06;;;9.00;74.42
37856;BME280;23694;43.274;26.924;2023-02-23T10:40:24;99190.41;;;9.07;74.56
37856;BME280;23694;43.274;26.924;2023-02-23T10:42:53;99191.09;;;9.11;73.81
37856;BME280;23694;43.274;26.924;2023-02-23T10:45:22;99197.06;;;9.13;73.92
37856;BME280;23694;43.274;26.924;2023-02-23T10:48:03;99194.31;;;9.30;72.07
37856;BME280;23694;43.274;26.924;2023-02-23T10:50:31;99153.16;;;8.74;73.64
37856;BME280;23694;43.274;26.924;2023-02-23T10:53:03;99189.69;;;8.89;73.35
37856;BME280;23694;43.274;26.924;2023-02-23T10:55:34;99196.22;;;9.12;72.26
37856;BME280;23694;43.274;26.924;2023-02-23T10:58:11;99199.78;;;8.96;71.75
37856;BME280;23694;43.274;26.924;2023-02-23T11:00:51;99184.56;;;9.18;70.05
37856;BME280;23694;43.274;26.924;2023-02-23T11:06:03;99187.75;;;8.93;70.69
37856;BME280;23694;43.274;26.924;2023-02-23T11:13:44;99192.25;;;9.05;69.41
37856;BME280;23694;43.274;26.924;2023-02-23T11:16:13;99189.91;;;9.01;69.67
37856;BME280;23694;43.274;26.924;2023-02-23T11:21:24;99200.25;;;9.18;68.78
37856;BME280;23694;43.274;26.924;2023-02-23T11:23:53;99186.69;;;9.11;68.56
37856;BME280;23694;43.274;26.924;2023-02-23T11:26:54;99191.50;;;9.03;70.31
37856;BME280;23694;43.274;26.924;2023-02-23T11:32:21;99189.72;;;9.04;69.00
37856;BME280;23694;43.274;26.924;2023-02-23T11:35:24;99175.78;;;9.19;68.24
37856;BME280;23694;43.274;26.924;2023-02-23T11:37:52;99171.31;;;9.21;68.31
37856;BME280;23694;43.274;26.924;2023-02-23T11:43:06;99192.72;;;9.28;69.00
37856;BME280;23694;43.274;26.924;2023-02-23T11:45:53;99194.69;;;9.08;69.76
37856;BME280;23694;43.274;26.924;2023-02-23T11:48:26;99188.97;;;9.17;69.67
37856;BME280;23694;43.274;26.924;2023-02-23T11:50:53;99186.81;;;9.24;69.20
37856;BME280;23694;43.274;26.924;2023-02-23T11:53:29;99199.47;;;9.46;67.86
37856;BME280;23694;43.274;26.924;2023-02-23T11:56:01;99184.78;;;9.29;68.59
37856;BME280;23694;43.274;26.924;2023-02-23T12:01:00;99190.81;;;9.15;70.03
37856;BME280;23694;43.274;26.924;2023-02-23T12:03:30;99194.38;;;9.29;69.95
37856;BME280;23694;43.274;26.924;2023-02-23T12:05:58;99185.78;;;8.67;71.76
37856;BME280;23694;43.274;26.924;2023-02-23T12:08:42;99184.66;;;9.16;69.84
37856;BME280;23694;43.274;26.924;2023-02-23T12:11:13;99194.75;;;9.23;69.73
37856;BME280;23694;43.274;26.924;2023-02-23T12:13:46;99181.81;;;9.49;68.45
37856;BME280;23694;43.274;26.924;2023-02-23T12:16:23;99188.72;;;9.50;68.06
37856;BME280;23694;43.274;26.924;2023-02-23T12:27:13;99201.53;;;9.69;65.33
37856;BME280;23694;43.274;26.924;2023-02-23T12:30:20;99204.31;;;9.66;65.18
37856;BME280;23694;43.274;26.924;2023-02-23T12:32:53;99208.44;;;9.70;63.78
37856;BME280;23694;43.274;26.924;2023-02-23T12:35:23;99200.81;;;9.96;62.30
37856;BME280;23694;43.274;26.924;2023-02-23T12:38:18;99210.59;;;10.06;61.46
37856;BME280;23694;43.274;26.924;2023-02-23T12:40:57;99203.59;;;10.21;60.81
37856;BME280;23694;43.274;26.924;2023-02-23T12:46:22;99192.78;;;8.96;65.67
37856;BME280;23694;43.274;26.924;2023-02-23T12:48:58;99189.81;;;9.32;63.97
37856;BME280;23694;43.274;26.924;2023-02-23T12:51:34;99192.16;;;9.37;63.73
37856;BME280;23694;43.274;26.924;2023-02-23T12:54:02;99203.66;;;9.63;62.29
37856;BME280;23694;43.274;26.924;2023-02-23T12:56:38;99216.25;;;9.42;62.54
37856;BME280;23694;43.274;26.924;2023-02-23T12:59:18;99223.25;;;9.41;62.57
37856;BME280;23694;43.274;26.924;2023-02-23T13:02:15;99196.47;;;9.08;64.52
37856;BME280;23694;43.274;26.924;2023-02-23T13:04:49;99226.69;;;9.28;64.38
37856;BME280;23694;43.274;26.924;2023-02-23T13:07:31;99212.84;;;9.11;64.62
37856;BME280;23694;43.274;26.924;2023-02-23T13:10:11;99215.09;;;9.02;66.37
37856;BME280;23694;43.274;26.924;2023-02-23T13:15:49;99213.81;;;8.79;66.19
37856;BME280;23694;43.274;26.924;2023-02-23T13:18:36;99220.88;;;8.93;64.77
37856;BME280;23694;43.274;26.924;2023-02-23T13:21:27;99235.50;;;9.11;63.90
37856;BME280;23694;43.274;26.924;2023-02-23T13:26:46;99235.16;;;9.17;63.35
37856;BME280;23694;43.274;26.924;2023-02-23T13:31:53;99219.91;;;9.39;61.50
37856;BME280;23694;43.274;26.924;2023-02-23T13:34:39;99231.00;;;8.83;62.67
37856;BME280;23694;43.274;26.924;2023-02-23T13:37:08;99242.69;;;8.92;63.87
37856;BME280;23694;43.274;26.924;2023-02-23T13:56:29;99253.84;;;8.64;65.25
37856;BME280;23694;43.274;26.924;2023-02-23T13:59:01;99243.75;;;8.57;66.24
37856;BME280;23694;43.274;26.924;2023-02-23T14:01:31;99247.97;;;8.60;66.69
37856;BME280;23694;43.274;26.924;2023-02-23T14:04:03;99258.44;;;8.43;67.26
37856;BME280;23694;43.274;26.924;2023-02-23T14:06:39;99263.97;;;8.54;67.24
37856;BME280;23694;43.274;26.924;2023-02-23T14:09:20;99261.47;;;8.35;68.08
37856;BME280;23694;43.274;26.924;2023-02-23T14:11:56;99264.03;;;8.19;68.89
37856;BME280;23694;43.274;26.924;2023-02-23T14:22:21;99276.31;;;8.17;69.89
37856;BME280;23694;43.274;26.924;2023-02-23T14:27:56;99270.47;;;7.97;70.12
37856;BME280;23694;43.274;26.924;2023-02-23T14:30:26;99260.25;;;7.59;71.19
37856;BME280;23694;43.274;26.924;2023-02-23T14:32:53;99282.09;;;7.56;71.83
37856;BME280;23694;43.274;26.924;2023-02-23T14:38:42;99266.84;;;7.31;73.40
37856;BME280;23694;43.274;26.924;2023-02-23T14:41:08;99267.84;;;7.46;73.11
37856;BME280;23694;43.274;26.924;2023-02-23T14:46:20;99271.38;;;7.45;71.95
37856;BME280;23694;43.274;26.924;2023-02-23T14:49:04;99270.84;;;7.39;71.86
37856;BME280;23694;43.274;26.924;2023-02-23T14:51:36;99267.25;;;7.24;72.15
37856;BME280;23694;43.274;26.924;2023-02-23T14:54:12;99271.00;;;7.18;72.73
37856;BME280;23694;43.274;26.924;2023-02-23T14:56:53;99270.50;;;7.10;73.52
37856;BME280;23694;43.274;26.924;2023-02-23T14:59:21;99273.75;;;7.32;72.93
37856;BME280;23694;43.274;26.924;2023-02-23T15:01:50;99291.91;;;7.34;72.86
37856;BME280;23694;43.274;26.924;2023-02-23T15:04:27;99275.22;;;7.21;73.91
37856;BME280;23694;43.274;26.924;2023-02-23T15:06:57;99313.59;;;7.17;74.61
37856;BME280;23694;43.274;26.924;2023-02-23T15:09:39;99274.41;;;7.02;75.32
37856;BME280;23694;43.274;26.924;2023-02-23T15:12:18;99310.31;;;6.95;75.62
37856;BME280;23694;43.274;26.924;2023-02-23T15:14:45;99276.06;;;6.85;75.63
37856;BME280;23694;43.274;26.924;2023-02-23T15:17:17;99284.63;;;6.87;75.71
37856;BME280;23694;43.274;26.924;2023-02-23T15:19:45;99273.47;;;7.03;75.67
37856;BME280;23694;43.274;26.924;2023-02-23T15:22:21;99275.09;;;7.05;75.26
37856;BME280;23694;43.274;26.924;2023-02-23T15:24:48;99281.59;;;6.96;76.29
37856;BME280;23694;43.274;26.924;2023-02-23T15:27:28;99285.25;;;6.92;76.94
37856;BME280;23694;43.274;26.924;2023-02-23T15:29:54;99276.50;;;6.76;77.97
37856;BME280;23694;43.274;26.924;2023-02-23T15:32:23;99281.63;;;6.78;78.65